Time;durP1;ratioP1;P1;durP2;ratioP2;P2;SDS_P1;SDS_P2;PMS_P1;PMS_P2;Temp;Humidity;BMP_temperature;BMP_pressure;BME280_temperature;BME280_humidity;BME280_pressure;Samples;Min_cycle;Max_cycle;Signal;HPM_P1;HPM_P2
2021/12/31 00:02:12;;;;;;;0.90;0.77;;;;;;;;;;5029270;28;20037;-72
2021/12/31 00:04:38;;;;;;;0.40;0.40;;;;;;;;;;5031938;28;20383;-72
2021/12/31 00:07:04;;;;;;;0.30;0.30;;;;;;;;;;5021402;28;20029;-72
2021/12/31 00:09:30;;;;;;;0.17;0.17;;;;;;;;;;5019743;28;20021;-72
2021/12/31 00:11:56;;;;;;;0.13;0.13;;;;;;;;;;5029430;28;20043;-72
2021/12/31 00:14:22;;;;;;;0.55;0.38;;;;;;;;;;5020062;28;20392;-72
2021/12/31 00:16:49;;;;;;;0.82;0.43;;;;;;;;;;5024022;28;20029;-73
2021/12/31 00:19:15;;;;;;;0.45;0.28;;;;;;;;;;5033265;28;20029;-73
2021/12/31 00:21:44;;;;;;;1.65;0.55;;;;;;;;;;5028132;28;20064;-74
2021/12/31 00:24:10;;;;;;;0.20;0.20;;;;;;;;;;5029234;28;20049;-73
2021/12/31 00:26:36;;;;;;;0.63;0.20;;;;;;;;;;5025276;28;20042;-74
2021/12/31 00:29:02;;;;;;;0.30;0.30;;;;;;;;;;5027791;28;20065;-73
2021/12/31 00:31:28;;;;;;;0.10;0.10;;;;;;;;;;5026930;28;20096;-73
2021/12/31 00:33:54;;;;;;;0.20;0.20;;;;;;;;;;5035345;28;20049;-73
2021/12/31 00:36:20;;;;;;;0.50;0.40;;;;;;;;;;5024548;28;20029;-73
2021/12/31 00:38:46;;;;;;;0.95;0.82;;;;;;;;;;5031173;28;20554;-73
2021/12/31 00:41:12;;;;;;;1.08;0.80;;;;;;;;;;5020758;28;20037;-74
2021/12/31 00:43:38;;;;;;;0.38;0.38;;;;;;;;;;5017974;28;20033;-73
2021/12/31 00:46:04;;;;;;;0.45;0.45;;;;;;;;;;5020763;28;20738;-74
2021/12/31 00:48:30;;;;;;;0.47;0.47;;;;;;;;;;5018493;28;20428;-72
2021/12/31 00:50:56;;;;;;;0.10;0.10;;;;;;;;;;5028992;28;20916;-71
2021/12/31 00:53:23;;;;;;;0.20;0.20;;;;;;;;;;5028601;28;20037;-73
2021/12/31 00:55:49;;;;;;;0.38;0.38;;;;;;;;;;5017835;28;20021;-72
2021/12/31 00:58:23;;;;;;;0.40;0.40;;;;;;;;;;5023594;28;20024;-74
2021/12/31 01:00:54;;;;;;;0.35;0.22;;;;;;;;;;5024026;28;20527;-74
2021/12/31 01:03:20;;;;;;;0.47;0.47;;;;;;;;;;5023622;28;20021;-75
2021/12/31 01:05:46;;;;;;;0.40;0.40;;;;;;;;;;5024609;28;20045;-74
2021/12/31 01:08:13;;;;;;;0.10;0.10;;;;;;;;;;5023708;28;20025;-75
2021/12/31 01:10:39;;;;;;;0.17;0.17;;;;;;;;;;5011166;28;20047;-73
2021/12/31 01:13:10;;;;;;;9.55;0.65;;;;;;;;;;5029114;28;20108;-73
2021/12/31 01:15:43;;;;;;;0.88;0.55;;;;;;;;;;5022967;28;20025;-74
2021/12/31 01:20:35;;;;;;;0.10;0.10;;;;;;;;;;5018807;28;20038;-73
2021/12/31 01:23:01;;;;;;;0.52;0.52;;;;;;;;;;5017934;28;20405;-73
2021/12/31 01:25:27;;;;;;;0.30;0.30;;;;;;;;;;5020402;28;20025;-73
2021/12/31 01:27:53;;;;;;;0.20;0.20;;;;;;;;;;5020531;28;20036;-74
2021/12/31 01:30:20;;;;;;;0.28;0.28;;;;;;;;;;5023944;28;20350;-73
2021/12/31 01:32:46;;;;;;;4.80;1.80;;;;;;;;;;5026639;28;20523;-73
2021/12/31 01:35:12;;;;;;;0.70;0.68;;;;;;;;;;5023233;28;20033;-72
2021/12/31 01:37:38;;;;;;;0.52;0.52;;;;;;;;;;5023354;28;20026;-72
2021/12/31 01:40:05;;;;;;;0.20;0.20;;;;;;;;;;5023875;28;20088;-72
2021/12/31 01:42:33;;;;;;;0.08;0.08;;;;;;;;;;5024225;28;20111;-72
2021/12/31 01:45:12;;;;;;;0.20;0.20;;;;;;;;;;5033833;28;20033;-72
2021/12/31 01:50:19;;;;;;;0.38;0.38;;;;;;;;;;5020602;28;20025;-72
2021/12/31 01:52:45;;;;;;;0.40;0.35;;;;;;;;;;5016961;28;20116;-73
2021/12/31 01:55:12;;;;;;;0.35;0.35;;;;;;;;;;5020750;28;20025;-73
2021/12/31 01:57:42;;;;;;;0.03;0.03;;;;;;;;;;5019166;28;20030;-73
2021/12/31 02:00:09;;;;;;;0.30;0.30;;;;;;;;;;5022723;28;20029;-73
2021/12/31 02:02:36;;;;;;;0.10;0.10;;;;;;;;;;5021878;28;20048;-71
2021/12/31 02:05:05;;;;;;;0.03;0.03;;;;;;;;;;5018529;28;20095;-71
2021/12/31 02:07:33;;;;;;;0.10;0.10;;;;;;;;;;5020754;28;20041;-72
2021/12/31 02:09:59;;;;;;;0.45;0.45;;;;;;;;;;5025414;28;20565;-71
2021/12/31 02:12:26;;;;;;;0.10;0.10;;;;;;;;;;5027860;28;20021;-71
2021/12/31 02:14:52;;;;;;;0.22;0.22;;;;;;;;;;5027149;28;20032;-71
2021/12/31 02:17:18;;;;;;;0.20;0.20;;;;;;;;;;5026487;28;20549;-72
2021/12/31 02:20:06;;;;;;;0.55;0.55;;;;;;;;;;5038346;28;20484;-72
2021/12/31 02:22:34;;;;;;;0.70;0.50;;;;;;;;;;5025476;28;20046;-71
2021/12/31 02:25:01;;;;;;;0.10;0.05;;;;;;;;;;5029467;28;20028;-71
2021/12/31 02:27:27;;;;;;;2.30;0.45;;;;;;;;;;5025490;28;20480;-71
2021/12/31 02:29:53;;;;;;;0.05;0.05;;;;;;;;;;5027771;28;20053;-71
2021/12/31 02:32:19;;;;;;;0.00;0.00;;;;;;;;;;5024521;28;20106;-71
2021/12/31 02:34:45;;;;;;;0.45;0.45;;;;;;;;;;5023785;28;20041;-73
2021/12/31 02:37:11;;;;;;;0.35;0.35;;;;;;;;;;5024134;28;20017;-71
2021/12/31 02:39:39;;;;;;;0.47;0.40;;;;;;;;;;5021991;28;20568;-71
2021/12/31 02:42:08;;;;;;;0.10;0.10;;;;;;;;;;5025225;28;20033;-71
2021/12/31 02:44:35;;;;;;;0.20;0.20;;;;;;;;;;5027452;28;20029;-71
2021/12/31 02:47:04;;;;;;;0.13;0.13;;;;;;;;;;5024217;28;20029;-72
2021/12/31 02:49:34;;;;;;;7.03;0.93;;;;;;;;;;5026045;28;20029;-71
2021/12/31 02:52:02;;;;;;;1.35;0.68;;;;;;;;;;5032829;28;20029;-71
2021/12/31 02:54:29;;;;;;;0.60;0.60;;;;;;;;;;5028402;28;20480;-72
2021/12/31 02:56:55;;;;;;;0.00;0.00;;;;;;;;;;5029684;28;20061;-72
2021/12/31 02:59:21;;;;;;;0.20;0.20;;;;;;;;;;5017648;28;20049;-71
2021/12/31 03:01:47;;;;;;;0.70;0.17;;;;;;;;;;5024894;28;20496;-71
2021/12/31 03:04:13;;;;;;;0.25;0.15;;;;;;;;;;5022793;28;20037;-71
2021/12/31 03:06:39;;;;;;;0.25;0.25;;;;;;;;;;5016387;28;20604;-71
2021/12/31 03:09:05;;;;;;;0.55;0.55;;;;;;;;;;5019355;28;20017;-72
2021/12/31 03:11:31;;;;;;;0.20;0.20;;;;;;;;;;5028973;28;20435;-73
2021/12/31 03:13:58;;;;;;;2.58;0.82;;;;;;;;;;5027091;28;20029;-72
2021/12/31 03:16:24;;;;;;;1.33;0.73;;;;;;;;;;5022227;28;20088;-73
2021/12/31 03:18:51;;;;;;;0.17;0.17;;;;;;;;;;5019767;28;20030;-72
2021/12/31 03:21:23;;;;;;;0.63;0.57;;;;;;;;;;5032429;28;20017;-72
2021/12/31 03:23:54;;;;;;;0.40;0.40;;;;;;;;;;5025950;28;20045;-73
2021/12/31 03:26:21;;;;;;;0.10;0.10;;;;;;;;;;5023967;28;20492;-73
2021/12/31 03:28:47;;;;;;;0.03;0.03;;;;;;;;;;5026519;28;20049;-72
2021/12/31 03:31:13;;;;;;;0.00;0.00;;;;;;;;;;5026578;28;20060;-72
2021/12/31 03:33:39;;;;;;;0.30;0.30;;;;;;;;;;5017233;28;20022;-72
2021/12/31 03:36:04;;;;;;;0.40;0.40;;;;;;;;;;5019689;28;20564;-72
2021/12/31 03:38:30;;;;;;;5.57;0.93;;;;;;;;;;5019188;28;20017;-72
2021/12/31 03:40:56;;;;;;;1.95;0.70;;;;;;;;;;5020857;28;20439;-73
2021/12/31 03:43:22;;;;;;;0.13;0.13;;;;;;;;;;5021941;28;20022;-72
2021/12/31 03:45:50;;;;;;;0.30;0.30;;;;;;;;;;5026737;28;20715;-72
2021/12/31 03:48:17;;;;;;;0.45;0.45;;;;;;;;;;5032602;28;20542;-73
2021/12/31 03:50:42;;;;;;;0.38;0.38;;;;;;;;;;5032442;28;20034;-73
2021/12/31 03:53:08;;;;;;;0.63;0.40;;;;;;;;;;5035246;28;20074;-72
2021/12/31 03:55:34;;;;;;;0.35;0.35;;;;;;;;;;5024203;28;20048;-72
2021/12/31 03:58:00;;;;;;;0.70;0.65;;;;;;;;;;5026389;28;20385;-72
2021/12/31 04:00:28;;;;;;;0.20;0.20;;;;;;;;;;5021200;28;20029;-72
2021/12/31 04:02:55;;;;;;;1.08;0.68;;;;;;;;;;5013055;28;20037;-73
2021/12/31 04:05:21;;;;;;;0.25;0.25;;;;;;;;;;5019489;28;20029;-72
2021/12/31 04:07:47;;;;;;;0.15;0.15;;;;;;;;;;5018899;28;20511;-72
2021/12/31 04:10:13;;;;;;;0.52;0.52;;;;;;;;;;5027396;28;20163;-71
2021/12/31 04:12:39;;;;;;;0.43;0.30;;;;;;;;;;5020354;28;20373;-72
2021/12/31 04:15:05;;;;;;;0.30;0.30;;;;;;;;;;5028147;28;20289;-72
2021/12/31 04:17:31;;;;;;;3.33;2.03;;;;;;;;;;5025263;28;20021;-72
2021/12/31 04:19:57;;;;;;;0.30;0.30;;;;;;;;;;5041189;28;20456;-72
2021/12/31 04:22:26;;;;;;;0.77;0.55;;;;;;;;;;5024401;28;20053;-73
2021/12/31 04:24:52;;;;;;;0.20;0.20;;;;;;;;;;5025834;28;20030;-72
2021/12/31 04:27:18;;;;;;;0.10;0.10;;;;;;;;;;5022303;28;20021;-72
2021/12/31 04:29:50;;;;;;;0.35;0.35;;;;;;;;;;5022601;28;20059;-73
2021/12/31 04:32:16;;;;;;;0.20;0.20;;;;;;;;;;5016006;28;20029;-72
2021/12/31 04:34:42;;;;;;;0.75;0.35;;;;;;;;;;5027272;28;20534;-72
2021/12/31 04:37:08;;;;;;;0.88;0.65;;;;;;;;;;5034971;28;20033;-73
2021/12/31 04:39:34;;;;;;;0.28;0.28;;;;;;;;;;5023894;28;20029;-72
2021/12/31 04:42:00;;;;;;;3.20;0.52;;;;;;;;;;5019911;28;20442;-72
2021/12/31 04:44:26;;;;;;;1.60;0.30;;;;;;;;;;5023268;28;20074;-72
2021/12/31 04:46:52;;;;;;;0.80;0.75;;;;;;;;;;5016758;28;20129;-72
2021/12/31 04:49:18;;;;;;;0.43;0.38;;;;;;;;;;5023342;28;20100;-72
2021/12/31 04:51:44;;;;;;;0.43;0.43;;;;;;;;;;5026398;28;20021;-72
2021/12/31 04:54:15;;;;;;;5.03;2.15;;;;;;;;;;5025681;28;20025;-72
2021/12/31 04:56:42;;;;;;;0.20;0.20;;;;;;;;;;5024698;28;20025;-72
2021/12/31 04:59:09;;;;;;;0.40;0.32;;;;;;;;;;5022975;28;20087;-72
2021/12/31 05:01:35;;;;;;;0.10;0.10;;;;;;;;;;5026362;28;20112;-72
2021/12/31 05:04:01;;;;;;;2.35;0.82;;;;;;;;;;5024444;28;20552;-72
2021/12/31 05:06:27;;;;;;;0.10;0.10;;;;;;;;;;5026501;28;20112;-71
2021/12/31 05:08:53;;;;;;;0.20;0.20;;;;;;;;;;5024306;28;20721;-71
2021/12/31 05:11:19;;;;;;;0.10;0.10;;;;;;;;;;5019339;28;20052;-71
2021/12/31 05:13:45;;;;;;;0.50;0.50;;;;;;;;;;5019929;28;20472;-71
2021/12/31 05:16:11;;;;;;;1.67;0.77;;;;;;;;;;5024667;28;20051;-71
2021/12/31 05:18:37;;;;;;;0.10;0.10;;;;;;;;;;5019750;28;20143;-71
2021/12/31 05:21:02;;;;;;;0.45;0.45;;;;;;;;;;5025799;28;20465;-72
2021/12/31 05:23:28;;;;;;;1.15;1.10;;;;;;;;;;5023461;28;20038;-71
2021/12/31 05:25:54;;;;;;;0.43;0.43;;;;;;;;;;5024316;28;20055;-71
2021/12/31 05:28:20;;;;;;;0.73;0.73;;;;;;;;;;5020879;28;20025;-72
2021/12/31 05:30:46;;;;;;;1.60;0.47;;;;;;;;;;5028110;28;20116;-71
2021/12/31 05:33:12;;;;;;;1.52;1.05;;;;;;;;;;5030867;28;20032;-72
2021/12/31 05:35:38;;;;;;;0.25;0.25;;;;;;;;;;5016707;28;20104;-73
2021/12/31 05:38:04;;;;;;;0.13;0.13;;;;;;;;;;5019203;28;20690;-72
2021/12/31 05:40:30;;;;;;;0.43;0.38;;;;;;;;;;5029639;28;20025;-73
2021/12/31 05:42:56;;;;;;;0.17;0.17;;;;;;;;;;5017132;28;20056;-73
2021/12/31 05:45:21;;;;;;;0.10;0.10;;;;;;;;;;5021249;28;20038;-72
2021/12/31 05:47:48;;;;;;;0.38;0.38;;;;;;;;;;5027109;28;20124;-72
2021/12/31 05:50:30;;;;;;;3.65;1.00;;;;;;;;;;5026332;28;20030;-72
2021/12/31 05:52:59;;;;;;;0.00;0.00;;;;;;;;;;5025694;28;20025;-72
2021/12/31 05:55:26;;;;;;;0.20;0.20;;;;;;;;;;5029721;28;20412;-72
2021/12/31 05:57:52;;;;;;;0.03;0.03;;;;;;;;;;5027740;28;20034;-72
2021/12/31 06:00:18;;;;;;;0.10;0.10;;;;;;;;;;5025461;28;20025;-72
2021/12/31 06:02:44;;;;;;;0.20;0.20;;;;;;;;;;5025728;28;20060;-73
2021/12/31 06:05:10;;;;;;;0.20;0.20;;;;;;;;;;5024059;28;20484;-72
2021/12/31 06:07:36;;;;;;;0.45;0.45;;;;;;;;;;5022601;28;20033;-73
2021/12/31 06:10:02;;;;;;;0.28;0.28;;;;;;;;;;5021355;28;20033;-72
2021/12/31 06:12:28;;;;;;;0.40;0.40;;;;;;;;;;5022125;28;20045;-72
2021/12/31 06:14:58;;;;;;;0.75;0.75;;;;;;;;;;5025490;28;20033;-72
2021/12/31 06:17:26;;;;;;;0.20;0.20;;;;;;;;;;5030604;28;20074;-73
2021/12/31 06:19:53;;;;;;;1.25;0.70;;;;;;;;;;5031116;28;20029;-72
2021/12/31 06:22:19;;;;;;;0.13;0.13;;;;;;;;;;5027658;28;20128;-72
2021/12/31 06:24:45;;;;;;;0.40;0.38;;;;;;;;;;5027386;28;20120;-73
2021/12/31 06:27:11;;;;;;;0.10;0.10;;;;;;;;;;5019715;28;20116;-72
2021/12/31 06:29:37;;;;;;;0.35;0.30;;;;;;;;;;5024623;28;20033;-72
2021/12/31 06:32:03;;;;;;;0.30;0.30;;;;;;;;;;5023988;28;20029;-72
2021/12/31 06:34:30;;;;;;;0.38;0.38;;;;;;;;;;5025774;28;20431;-73
2021/12/31 06:36:56;;;;;;;0.15;0.10;;;;;;;;;;5027242;28;20057;-74
2021/12/31 06:39:22;;;;;;;0.08;0.08;;;;;;;;;;5026620;28;20133;-73
2021/12/31 06:41:48;;;;;;;0.20;0.20;;;;;;;;;;5023517;28;20021;-72
2021/12/31 06:44:14;;;;;;;0.35;0.13;;;;;;;;;;5024568;28;20313;-72
2021/12/31 06:46:40;;;;;;;0.05;0.05;;;;;;;;;;5020966;28;20030;-73
2021/12/31 06:49:06;;;;;;;0.52;0.52;;;;;;;;;;5021190;28;20022;-72
2021/12/31 06:51:32;;;;;;;0.35;0.35;;;;;;;;;;5026927;28;20021;-72
2021/12/31 06:53:58;;;;;;;0.77;0.75;;;;;;;;;;5038437;28;20412;-73
2021/12/31 06:56:23;;;;;;;0.55;0.55;;;;;;;;;;5024367;28;20745;-72
2021/12/31 06:58:49;;;;;;;0.17;0.17;;;;;;;;;;5025665;28;20128;-73
2021/12/31 07:01:15;;;;;;;1.08;0.98;;;;;;;;;;5016964;28;20025;-73
2021/12/31 07:03:41;;;;;;;0.00;0.00;;;;;;;;;;5021664;28;20416;-72
2021/12/31 07:06:07;;;;;;;0.10;0.10;;;;;;;;;;5028617;28;20033;-73
2021/12/31 07:08:33;;;;;;;0.25;0.20;;;;;;;;;;5020832;28;20140;-73
2021/12/31 07:10:59;;;;;;;0.03;0.03;;;;;;;;;;5020951;28;20057;-73
2021/12/31 07:13:25;;;;;;;0.28;0.28;;;;;;;;;;5031970;28;20045;-73
2021/12/31 07:15:51;;;;;;;0.10;0.10;;;;;;;;;;5026151;28;20151;-73
2021/12/31 07:18:18;;;;;;;0.73;0.60;;;;;;;;;;5037530;28;20020;-72
2021/12/31 07:20:44;;;;;;;0.35;0.35;;;;;;;;;;5031978;28;20044;-72
2021/12/31 07:23:11;;;;;;;0.17;0.17;;;;;;;;;;5025451;28;20049;-72
2021/12/31 07:25:40;;;;;;;0.05;0.05;;;;;;;;;;5019877;28;20034;-72
2021/12/31 07:28:06;;;;;;;0.28;0.28;;;;;;;;;;5023831;28;20400;-72
2021/12/31 07:30:32;;;;;;;0.20;0.20;;;;;;;;;;5020231;28;20032;-72
2021/12/31 07:32:58;;;;;;;0.20;0.20;;;;;;;;;;5027912;28;20025;-72
2021/12/31 07:35:25;;;;;;;0.13;0.13;;;;;;;;;;5026967;28;20021;-72
2021/12/31 07:37:56;;;;;;;2.13;1.08;;;;;;;;;;5032927;28;20034;-72
2021/12/31 07:40:39;;;;;;;0.25;0.25;;;;;;;;;;5022611;28;20195;-73
2021/12/31 07:43:05;;;;;;;0.68;0.30;;;;;;;;;;5027564;28;20030;-73
2021/12/31 07:45:31;;;;;;;0.47;0.47;;;;;;;;;;5020017;28;20116;-73
2021/12/31 07:47:57;;;;;;;0.00;0.00;;;;;;;;;;5021139;28;20113;-73
2021/12/31 07:50:23;;;;;;;0.45;0.45;;;;;;;;;;5025677;28;20045;-73
2021/12/31 07:52:49;;;;;;;0.30;0.30;;;;;;;;;;5021737;28;20025;-72
2021/12/31 07:55:15;;;;;;;0.28;0.28;;;;;;;;;;5029429;28;20045;-72
2021/12/31 07:57:41;;;;;;;0.00;0.00;;;;;;;;;;5025311;28;20032;-72
2021/12/31 08:00:07;;;;;;;0.20;0.20;;;;;;;;;;5023185;28;20029;-72
2021/12/31 08:02:33;;;;;;;0.25;0.25;;;;;;;;;;5025888;28;20126;-72
2021/12/31 08:04:59;;;;;;;0.50;0.13;;;;;;;;;;5031934;28;20130;-73
2021/12/31 08:07:25;;;;;;;0.20;0.20;;;;;;;;;;5030419;28;20036;-72
2021/12/31 08:09:51;;;;;;;0.15;0.15;;;;;;;;;;5024451;28;20017;-73
2021/12/31 08:12:17;;;;;;;1.17;0.65;;;;;;;;;;5030251;28;20029;-72
2021/12/31 08:14:43;;;;;;;0.50;0.50;;;;;;;;;;5023701;28;20125;-72
2021/12/31 08:17:09;;;;;;;0.55;0.45;;;;;;;;;;5020760;28;20029;-72
2021/12/31 08:19:34;;;;;;;0.00;0.00;;;;;;;;;;5019480;28;20116;-72
2021/12/31 08:22:00;;;;;;;0.15;0.15;;;;;;;;;;5024094;28;20033;-73
2021/12/31 08:24:26;;;;;;;0.20;0.20;;;;;;;;;;5023459;28;20391;-72
2021/12/31 08:26:52;;;;;;;0.73;0.73;;;;;;;;;;5027897;28;20447;-72
2021/12/31 08:29:18;;;;;;;0.10;0.10;;;;;;;;;;5022501;28;20093;-72
2021/12/31 08:31:44;;;;;;;0.43;0.40;;;;;;;;;;5035297;28;20384;-72
2021/12/31 08:34:10;;;;;;;0.47;0.47;;;;;;;;;;5024996;28;20029;-72
2021/12/31 08:36:36;;;;;;;0.10;0.10;;;;;;;;;;5020924;28;20033;-72
2021/12/31 08:39:12;;;;;;;0.10;0.10;;;;;;;;;;5024099;28;20021;-72
2021/12/31 08:41:39;;;;;;;7.35;1.77;;;;;;;;;;5010368;28;20436;-72
2021/12/31 08:44:06;;;;;;;0.20;0.20;;;;;;;;;;5019871;28;20032;-71
2021/12/31 08:46:32;;;;;;;0.32;0.32;;;;;;;;;;5023469;28;20041;-72
2021/12/31 08:48:58;;;;;;;0.20;0.20;;;;;;;;;;5025303;28;20021;-71
2021/12/31 08:51:24;;;;;;;0.03;0.03;;;;;;;;;;5023531;28;20036;-71
2021/12/31 08:53:50;;;;;;;0.10;0.10;;;;;;;;;;5016447;28;20432;-71
2021/12/31 08:56:16;;;;;;;0.10;0.10;;;;;;;;;;5018850;28;20531;-71
2021/12/31 08:58:42;;;;;;;0.30;0.30;;;;;;;;;;5016170;28;20018;-72
2021/12/31 09:01:08;;;;;;;0.88;0.85;;;;;;;;;;5015653;28;20017;-71
2021/12/31 09:03:34;;;;;;;0.25;0.10;;;;;;;;;;5021811;28;20494;-72
2021/12/31 09:06:00;;;;;;;0.10;0.10;;;;;;;;;;5023809;28;20160;-71
2021/12/31 09:08:26;;;;;;;0.10;0.10;;;;;;;;;;5021734;28;20044;-71
2021/12/31 09:10:52;;;;;;;0.13;0.13;;;;;;;;;;5021588;28;20132;-72
2021/12/31 09:13:18;;;;;;;0.00;0.00;;;;;;;;;;5016777;28;20018;-71
2021/12/31 09:15:44;;;;;;;0.50;0.50;;;;;;;;;;5023726;28;20080;-72
2021/12/31 09:18:10;;;;;;;0.15;0.15;;;;;;;;;;5019640;28;20049;-72
2021/12/31 09:20:36;;;;;;;0.30;0.30;;;;;;;;;;5026820;28;20160;-72
2021/12/31 09:23:02;;;;;;;0.52;0.35;;;;;;;;;;5025408;28;20045;-72
2021/12/31 09:25:28;;;;;;;0.20;0.20;;;;;;;;;;5026814;28;20087;-72
2021/12/31 09:27:55;;;;;;;1.25;0.75;;;;;;;;;;5026246;28;20518;-71
2021/12/31 09:30:20;;;;;;;0.00;0.00;;;;;;;;;;5026861;28;20033;-72
2021/12/31 09:32:46;;;;;;;0.00;0.00;;;;;;;;;;5028110;28;20036;-71
2021/12/31 09:35:12;;;;;;;0.05;0.05;;;;;;;;;;5023068;28;20033;-72
2021/12/31 09:37:39;;;;;;;0.32;0.32;;;;;;;;;;5023624;28;20033;-75
2021/12/31 09:40:05;;;;;;;0.82;0.57;;;;;;;;;;5029329;28;20029;-72
2021/12/31 09:42:31;;;;;;;0.10;0.10;;;;;;;;;;5024247;28;20029;-72
2021/12/31 09:44:57;;;;;;;0.08;0.08;;;;;;;;;;5025867;28;21798;-70
2021/12/31 09:47:23;;;;;;;0.13;0.13;;;;;;;;;;5024178;28;20057;-71
2021/12/31 09:49:49;;;;;;;0.20;0.20;;;;;;;;;;5025777;28;20035;-71
2021/12/31 09:52:15;;;;;;;0.20;0.20;;;;;;;;;;5021492;28;20022;-71
2021/12/31 09:54:42;;;;;;;0.10;0.10;;;;;;;;;;5016804;28;20577;-72
2021/12/31 09:57:15;;;;;;;0.75;0.75;;;;;;;;;;5023419;28;20040;-74
2021/12/31 09:59:41;;;;;;;0.00;0.00;;;;;;;;;;5012421;28;20041;-71
2021/12/31 10:02:09;;;;;;;0.20;0.20;;;;;;;;;;5021281;28;20025;-71
2021/12/31 10:04:51;;;;;;;0.13;0.13;;;;;;;;;;5024748;28;20025;-71
2021/12/31 10:07:20;;;;;;;;;;;;;;;;;;5021256;28;20120;-71
2021/12/31 10:10:02;;;;;;;0.13;0.13;;;;;;;;;;5022528;28;19917;-71
2021/12/31 10:12:43;;;;;;;0.20;0.20;;;;;;;;;;5018145;28;20476;-73
2021/12/31 10:15:09;;;;;;;;;;;;;;;;;;5024815;28;20021;-73
2021/12/31 10:17:35;;;;;;;1.33;1.10;;;;;;;;;;5017608;28;20379;-75
2021/12/31 10:20:01;;;;;;;1.00;0.22;;;;;;;;;;5018200;28;20455;-77
2021/12/31 10:22:27;;;;;;;0.10;0.10;;;;;;;;;;5025700;28;20141;-76
2021/12/31 10:24:53;;;;;;;0.00;0.00;;;;;;;;;;5028783;28;20052;-74
2021/12/31 10:27:20;;;;;;;0.20;0.20;;;;;;;;;;5019769;28;20041;-74
2021/12/31 10:29:58;;;;;;;3.80;1.20;;;;;;;;;;5024629;28;20587;-73
2021/12/31 10:32:26;;;;;;;0.10;0.10;;;;;;;;;;5021918;28;20029;-72
2021/12/31 10:34:52;;;;;;;0.38;0.22;;;;;;;;;;5018777;28;20057;-74
2021/12/31 10:37:23;;;;;;;0.00;0.00;;;;;;;;;;5019949;28;20482;-74
2021/12/31 10:40:00;;;;;;;0.20;0.20;;;;;;;;;;5021863;28;20025;-73
2021/12/31 10:42:32;;;;;;;0.52;0.45;;;;;;;;;;5022687;28;20032;-74
2021/12/31 10:44:58;;;;;;;0.00;0.00;;;;;;;;;;5023960;28;20083;-74
2021/12/31 10:47:29;;;;;;;24.63;0.63;;;;;;;;;;5023309;28;20187;-73
2021/12/31 10:50:01;;;;;;;0.30;0.30;;;;;;;;;;5019618;28;20017;-75
2021/12/31 10:52:33;;;;;;;0.00;0.00;;;;;;;;;;5022718;28;20036;-75
2021/12/31 10:55:02;;;;;;;0.03;0.03;;;;;;;;;;5014565;28;20512;-75
2021/12/31 10:57:35;;;;;;;1.95;1.25;;;;;;;;;;5023740;28;20408;-75
2021/12/31 11:00:01;;;;;;;0.38;0.28;;;;;;;;;;5021139;28;20029;-75
2021/12/31 11:02:27;;;;;;;1.35;0.70;;;;;;;;;;5026455;28;20094;-76
2021/12/31 11:04:53;;;;;;;0.03;0.03;;;;;;;;;;5021708;28;20163;-74
2021/12/31 11:07:20;;;;;;;0.10;0.10;;;;;;;;;;5023449;28;20792;-75
2021/12/31 11:09:46;;;;;;;0.00;0.00;;;;;;;;;;5023822;28;20025;-78
2021/12/31 11:12:13;;;;;;;0.03;0.03;;;;;;;;;;5025893;28;20044;-75
2021/12/31 11:14:39;;;;;;;0.03;0.03;;;;;;;;;;5019957;28;20485;-74
2021/12/31 11:17:05;;;;;;;0.20;0.20;;;;;;;;;;5026965;28;20025;-82
2021/12/31 11:19:31;;;;;;;0.10;0.10;;;;;;;;;;5018040;28;20045;-82
2021/12/31 11:21:57;;;;;;;0.10;0.10;;;;;;;;;;5018244;28;20079;-80
2021/12/31 11:24:28;;;;;;;0.40;0.40;;;;;;;;;;5023268;28;20284;-80
2021/12/31 11:26:54;;;;;;;0.10;0.10;;;;;;;;;;5024218;28;20029;-76
2021/12/31 11:29:20;;;;;;;0.35;0.35;;;;;;;;;;5027247;28;20030;-72
2021/12/31 11:31:46;;;;;;;0.05;0.05;;;;;;;;;;5026669;28;20492;-77
2021/12/31 11:34:13;;;;;;;0.00;0.00;;;;;;;;;;5026473;28;20519;-76
2021/12/31 11:36:42;;;;;;;0.10;0.10;;;;;;;;;;5023658;28;20108;-73
2021/12/31 11:39:15;;;;;;;0.00;0.00;;;;;;;;;;5017407;28;20053;-72
2021/12/31 11:41:42;;;;;;;0.05;0.05;;;;;;;;;;5013659;28;20037;-72
2021/12/31 11:44:09;;;;;;;0.20;0.05;;;;;;;;;;5017622;28;20156;-72
2021/12/31 11:46:37;;;;;;;0.43;0.43;;;;;;;;;;5018415;28;20538;-73
2021/12/31 11:49:08;;;;;;;0.10;0.10;;;;;;;;;;5025429;28;20025;-74
2021/12/31 11:51:35;;;;;;;0.00;0.00;;;;;;;;;;5023426;28;20032;-72
2021/12/31 11:54:02;;;;;;;0.20;0.20;;;;;;;;;;5025936;28;20033;-73
2021/12/31 11:56:35;;;;;;;0.00;0.00;;;;;;;;;;5016024;28;20053;-74
2021/12/31 11:59:10;;;;;;;0.00;0.00;;;;;;;;;;5023632;28;20029;-73
2021/12/31 12:01:40;;;;;;;0.10;0.10;;;;;;;;;;5019901;28;20033;-73
2021/12/31 12:04:38;;;;;;;0.43;0.40;;;;;;;;;;5020360;28;20037;-73
2021/12/31 12:07:10;;;;;;;0.00;0.00;;;;;;;;;;4967615;28;20060;-74
2021/12/31 12:09:35;;;;;;;0.10;0.10;;;;;;;;;;5018798;28;20052;-73
2021/12/31 12:12:05;;;;;;;0.25;0.13;;;;;;;;;;5024549;28;20030;-73
2021/12/31 12:14:41;;;;;;;0.05;0.05;;;;;;;;;;5020846;28;20463;-73
2021/12/31 12:17:08;;;;;;;0.20;0.20;;;;;;;;;;5010994;28;20618;-73
2021/12/31 12:19:46;;;;;;;1.17;0.28;;;;;;;;;;5013904;28;20112;-74
2021/12/31 12:22:32;;;;;;;0.10;0.10;;;;;;;;;;5017451;28;20399;-72
2021/12/31 12:25:00;;;;;;;0.20;0.20;;;;;;;;;;5020423;28;20057;-72
2021/12/31 12:27:27;;;;;;;0.50;0.50;;;;;;;;;;5017292;28;20048;-73
2021/12/31 12:29:53;;;;;;;0.00;0.00;;;;;;;;;;5024052;28;20391;-73
2021/12/31 12:32:35;;;;;;;0.00;0.00;;;;;;;;;;5012039;28;20047;-73
2021/12/31 12:35:17;;;;;;;0.17;0.17;;;;;;;;;;5016527;28;20025;-73
2021/12/31 12:37:44;;;;;;;0.15;0.15;;;;;;;;;;5016354;28;20059;-73
2021/12/31 12:40:10;;;;;;;0.10;0.10;;;;;;;;;;5018810;28;20396;-73
2021/12/31 12:42:36;;;;;;;0.10;0.10;;;;;;;;;;5022558;28;20037;-73
2021/12/31 12:45:07;;;;;;;0.00;0.00;;;;;;;;;;5020219;28;20022;-73
2021/12/31 12:47:35;;;;;;;0.17;0.17;;;;;;;;;;5018693;28;20515;-73
2021/12/31 12:50:01;;;;;;;0.10;0.10;;;;;;;;;;5015378;28;20772;-73
2021/12/31 12:52:27;;;;;;;0.00;0.00;;;;;;;;;;5015844;28;20071;-73
2021/12/31 12:55:18;;;;;;;0.40;0.40;;;;;;;;;;5015040;28;20982;-73
2021/12/31 12:57:51;;;;;;;1.17;1.08;;;;;;;;;;5018438;28;20032;-73
2021/12/31 13:00:17;;;;;;;0.15;0.15;;;;;;;;;;5015757;28;20099;-74
2021/12/31 13:02:44;;;;;;;0.00;0.00;;;;;;;;;;5016048;28;20528;-75
2021/12/31 13:05:11;;;;;;;0.25;0.25;;;;;;;;;;5009590;28;20888;-76
2021/12/31 13:07:38;;;;;;;0.10;0.10;;;;;;;;;;5013761;28;20021;-77
2021/12/31 13:10:05;;;;;;;0.10;0.10;;;;;;;;;;5013340;28;20032;-77
2021/12/31 13:12:32;;;;;;;0.20;0.20;;;;;;;;;;5015601;28;20383;-77
2021/12/31 13:14:59;;;;;;;0.10;0.10;;;;;;;;;;5019510;28;20480;-76
2021/12/31 13:17:27;;;;;;;0.20;0.20;;;;;;;;;;5012850;28;20038;-77
2021/12/31 13:20:02;;;;;;;0.00;0.00;;;;;;;;;;5012818;28;20025;-78
2021/12/31 13:22:32;;;;;;;0.00;0.00;;;;;;;;;;5012007;28;20081;-77
2021/12/31 13:24:58;;;;;;;0.30;0.30;;;;;;;;;;5017452;28;20025;-77
2021/12/31 13:27:24;;;;;;;0.00;0.00;;;;;;;;;;5011484;28;20037;-78
2021/12/31 13:29:53;;;;;;;0.45;0.35;;;;;;;;;;5016180;28;20013;-77
2021/12/31 13:32:19;;;;;;;0.22;0.08;;;;;;;;;;5016362;28;20455;-77
2021/12/31 13:34:46;;;;;;;0.30;0.30;;;;;;;;;;5011971;28;20313;-77
2021/12/31 13:37:34;;;;;;;0.00;0.00;;;;;;;;;;5014836;28;20087;-77
2021/12/31 13:40:09;;;;;;;0.10;0.10;;;;;;;;;;5011602;28;20044;-76
2021/12/31 13:42:36;;;;;;;0.10;0.10;;;;;;;;;;5016125;28;20029;-77
2021/12/31 13:45:03;;;;;;;1.08;0.30;;;;;;;;;;5017226;28;20021;-76
2021/12/31 13:47:29;;;;;;;0.10;0.10;;;;;;;;;;5019870;28;20087;-76
2021/12/31 13:49:58;;;;;;;0.00;0.00;;;;;;;;;;5019092;28;20029;-74
2021/12/31 13:52:31;;;;;;;0.00;0.00;;;;;;;;;;5019188;28;20044;-74
2021/12/31 13:55:00;;;;;;;0.10;0.10;;;;;;;;;;5019800;28;20014;-75
2021/12/31 13:57:30;;;;;;;0.63;0.20;;;;;;;;;;5016776;28;20056;-77
2021/12/31 13:59:57;;;;;;;0.20;0.20;;;;;;;;;;5021183;28;20029;-75
2021/12/31 14:02:25;;;;;;;0.10;0.10;;;;;;;;;;5017691;28;20029;-76
2021/12/31 14:04:54;;;;;;;0.08;0.08;;;;;;;;;;5022674;28;20025;-77
2021/12/31 14:07:22;;;;;;;0.30;0.30;;;;;;;;;;5022446;28;20072;-77
2021/12/31 14:09:49;;;;;;;0.30;0.30;;;;;;;;;;5027687;28;20530;-77
2021/12/31 14:12:16;;;;;;;0.00;0.00;;;;;;;;;;5026330;28;20065;-77
2021/12/31 14:14:42;;;;;;;0.10;0.10;;;;;;;;;;5022218;28;20029;-77
2021/12/31 14:17:09;;;;;;;0.73;0.60;;;;;;;;;;5021282;28;20817;-76
2021/12/31 14:19:35;;;;;;;0.13;0.13;;;;;;;;;;5027395;28;20029;-76
2021/12/31 14:22:01;;;;;;;0.00;0.00;;;;;;;;;;5025162;28;20025;-75
2021/12/31 14:24:27;;;;;;;0.20;0.20;;;;;;;;;;5024144;28;20041;-76
2021/12/31 14:26:54;;;;;;;0.10;0.10;;;;;;;;;;5024432;28;20038;-76
2021/12/31 14:29:20;;;;;;;2.90;0.40;;;;;;;;;;5022203;28;20080;-76
2021/12/31 14:31:46;;;;;;;2.28;0.38;;;;;;;;;;5030392;28;20029;-75
2021/12/31 14:34:16;;;;;;;0.00;0.00;;;;;;;;;;5025150;28;20390;-76
2021/12/31 14:36:57;;;;;;;0.20;0.20;;;;;;;;;;5025706;28;20034;-76
2021/12/31 14:39:23;;;;;;;;;;;;;;;;;;5021526;28;20060;-75
2021/12/31 14:41:49;;;;;;;0.10;0.10;;;;;;;;;;5016508;28;19953;-76
2021/12/31 14:44:15;;;;;;;4.30;1.45;;;;;;;;;;5025967;28;20037;-76
2021/12/31 14:46:41;;;;;;;0.95;0.93;;;;;;;;;;5022016;28;20040;-76
2021/12/31 14:49:06;;;;;;;0.00;0.00;;;;;;;;;;5023923;28;20021;-76
2021/12/31 14:51:33;;;;;;;0.25;0.25;;;;;;;;;;5023889;28;20128;-77